Time;durP1;ratioP1;P1;durP2;ratioP2;P2;SDS_P1;SDS_P2;PMS_P1;PMS_P2;Temp;Humidity;BMP_temperature;BMP_pressure;BME280_temperature;BME280_humidity;BME280_pressure;Samples;Min_cycle;Max_cycle;Signal;HPM_P1;HPM_P2
2022/05/22 00:01:39;;;;;;;;;;;18.70;90.50;;;;;;5024992;28;20373;-74
2022/05/22 00:04:04;;;;;;;;;;;18.70;90.50;;;;;;5016607;28;20346;-75
2022/05/22 00:06:30;;;;;;;;;;;18.70;90.50;;;;;;5016637;28;19908;-76
2022/05/22 00:08:55;;;;;;;;;;;18.70;90.50;;;;;;5034033;28;19920;-74
2022/05/22 00:11:22;;;;;;;;;;;18.70;90.50;;;;;;5034305;28;19901;-76
2022/05/22 00:13:48;;;;;;;;;;;18.70;90.60;;;;;;5033674;28;19901;-74
2022/05/22 00:18:58;;;;;;;;;;;18.70;90.70;;;;;;5034005;28;19907;-75
2022/05/22 00:21:24;;;;;;;;;;;18.70;90.60;;;;;;5016189;28;19900;-74
2022/05/22 00:23:49;;;;;;;;;;;18.70;90.60;;;;;;5033753;28;19948;-74
2022/05/22 00:26:15;;;;;;;;;;;18.70;90.50;;;;;;5033930;28;19936;-74
2022/05/22 00:28:41;;;;;;;;;;;18.80;90.50;;;;;;5016214;28;19905;-74
2022/05/22 00:31:06;;;;;;;;;;;18.80;90.50;;;;;;5034169;28;20269;-74
2022/05/22 00:33:32;;;;;;;;;;;18.80;90.40;;;;;;5015619;28;20039;-75
2022/05/22 00:35:57;;;;;;;;;;;18.80;90.40;;;;;;5017185;28;19901;-74
2022/05/22 00:38:23;;;;;;;;;;;18.80;90.40;;;;;;5032137;28;19901;-76
2022/05/22 00:40:48;;;;;;;;;;;18.70;90.40;;;;;;5015923;28;19901;-76
2022/05/22 00:43:32;;;;;;;;;;;18.70;90.50;;;;;;5033578;28;19901;-75
2022/05/22 00:45:58;;;;;;;;;;;18.70;90.50;;;;;;5015954;28;19905;-75
2022/05/22 00:48:24;;;;;;;;;;;18.70;90.60;;;;;;5015849;28;20239;-75
2022/05/22 00:50:51;;;;;;;;;;;18.70;90.60;;;;;;5033695;28;19980;-76
2022/05/22 00:53:17;;;;;;;;;;;18.70;90.60;;;;;;5033685;28;19905;-75
2022/05/22 00:55:43;;;;;;;;;;;18.70;90.60;;;;;;5033285;28;19905;-75
2022/05/22 00:58:10;;;;;;;;;;;18.70;90.60;;;;;;5033398;28;20337;-76
2022/05/22 01:00:36;;;;;;;;;;;18.60;90.50;;;;;;5033670;28;19901;-74
2022/05/22 01:05:49;;;;;;;;;;;18.60;90.50;;;;;;5033433;28;19908;-75
2022/05/22 01:08:14;;;;;;;;;;;18.60;90.50;;;;;;5033281;28;19901;-75
2022/05/22 01:10:44;;;;;;;;;;;18.60;90.50;;;;;;5033198;28;20354;-76
2022/05/22 01:13:12;;;;;;;;;;;18.60;90.60;;;;;;5032969;28;19901;-75
2022/05/22 01:15:37;;;;;;;;;;;18.60;90.60;;;;;;5015181;28;19912;-75
2022/05/22 01:18:03;;;;;;;;;;;18.60;90.60;;;;;;5033052;28;19901;-74
2022/05/22 01:20:28;;;;;;;;;;;18.70;90.60;;;;;;5033013;28;20369;-74
2022/05/22 01:22:54;;;;;;;;;;;18.70;90.50;;;;;;5015382;28;20308;-74
2022/05/22 01:25:19;;;;;;;;;;;18.70;90.50;;;;;;5032715;28;20406;-75
2022/05/22 01:27:44;;;;;;;;;;;18.80;90.40;;;;;;5015241;28;19999;-75
2022/05/22 01:30:13;;;;;;;;;;;18.70;90.40;;;;;;5032891;28;19905;-75
2022/05/22 01:32:39;;;;;;;;;;;18.70;90.40;;;;;;5032867;28;19901;-74
2022/05/22 01:35:05;;;;;;;;;;;18.70;90.40;;;;;;5015156;28;19991;-74
2022/05/22 01:37:31;;;;;;;;;;;18.70;90.40;;;;;;5015088;28;19940;-74
2022/05/22 01:39:56;;;;;;;;;;;18.70;90.50;;;;;;4993587;28;19948;-74
2022/05/22 01:42:22;;;;;;;;;;;18.60;90.50;;;;;;5012938;28;19901;-74
2022/05/22 01:44:47;;;;;;;;;;;18.60;90.60;;;;;;5012773;28;20266;-74
2022/05/22 01:47:12;;;;;;;;;;;18.60;90.60;;;;;;4995320;28;19908;-75
2022/05/22 01:49:38;;;;;;;;;;;18.70;90.60;;;;;;4998720;28;19952;-74
2022/05/22 01:52:04;;;;;;;;;;;18.60;90.60;;;;;;4979882;28;19972;-74
2022/05/22 01:54:29;;;;;;;;;;;18.60;90.50;;;;;;4979501;28;19901;-74
2022/05/22 01:56:54;;;;;;;;;;;18.60;90.60;;;;;;4979721;28;19902;-74
2022/05/22 01:59:20;;;;;;;;;;;18.60;90.50;;;;;;4997203;28;19902;-74
2022/05/22 02:01:45;;;;;;;;;;;18.60;90.50;;;;;;4997115;28;19956;-74
2022/05/22 02:04:11;;;;;;;;;;;18.60;90.50;;;;;;4996745;28;19903;-74
2022/05/22 02:08:19;;;;;;;;;;;18.60;90.50;;;;;;4979830;28;20004;-75
2022/05/22 02:09:21;;;;;;;;;;;18.60;90.60;;;;;;4996819;28;19989;-76
2022/05/22 02:11:47;;;;;;;;;;;18.60;90.70;;;;;;4997232;28;19941;-76
2022/05/22 02:14:14;;;;;;;;;;;18.60;90.60;;;;;;4979320;28;19945;-75
2022/05/22 02:16:39;;;;;;;;;;;18.60;90.60;;;;;;4979692;28;19905;-74
2022/05/22 02:19:05;;;;;;;;;;;18.60;90.50;;;;;;4994236;28;19901;-75
2022/05/22 02:21:32;;;;;;;;;;;18.70;90.50;;;;;;5016401;28;20995;-75
2022/05/22 02:23:57;;;;;;;;;;;18.70;90.40;;;;;;4998692;28;20522;-75
2022/05/22 02:26:22;;;;;;;;;;;18.70;90.40;;;;;;4998688;28;19921;-76
2022/05/22 02:28:48;;;;;;;;;;;18.70;90.40;;;;;;5016240;28;20108;-76
2022/05/22 02:31:13;;;;;;;;;;;18.70;90.40;;;;;;5016263;28;20382;-76
2022/05/22 02:33:40;;;;;;;;;;;18.70;90.40;;;;;;4998507;28;20274;-74
2022/05/22 02:36:06;;;;;;;;;;;18.60;90.40;;;;;;4998612;28;19912;-75
2022/05/22 02:38:32;;;;;;;;;;;18.60;90.50;;;;;;4998265;28;19905;-75
2022/05/22 02:40:58;;;;;;;;;;;18.60;90.50;;;;;;5016082;28;20417;-74
2022/05/22 02:43:23;;;;;;;;;;;18.60;90.60;;;;;;4998339;28;19905;-74
2022/05/22 02:45:49;;;;;;;;;;;18.60;90.60;;;;;;4998317;28;19972;-75
2022/05/22 02:48:14;;;;;;;;;;;18.60;90.60;;;;;;5001788;28;19905;-75
2022/05/22 02:50:40;;;;;;;;;;;18.60;90.60;;;;;;4978674;28;19909;-74
2022/05/22 02:53:06;;;;;;;;;;;18.60;90.60;;;;;;4978649;28;20381;-75
2022/05/22 02:55:31;;;;;;;;;;;18.50;90.50;;;;;;5005941;28;20387;-74
2022/05/22 02:57:57;;;;;;;;;;;18.60;90.60;;;;;;5015143;28;19916;-75
2022/05/22 03:00:23;;;;;;;;;;;18.50;90.60;;;;;;4998091;28;20359;-74
2022/05/22 03:02:49;;;;;;;;;;;18.50;90.60;;;;;;4997156;28;19920;-75
2022/05/22 03:05:15;;;;;;;;;;;18.50;90.60;;;;;;5015538;28;20367;-75
2022/05/22 03:07:40;;;;;;;;;;;18.50;90.60;;;;;;4998001;28;19906;-75
2022/05/22 03:10:08;;;;;;;;;;;18.50;90.60;;;;;;4997948;28;19909;-75
2022/05/22 03:12:35;;;;;;;;;;;18.60;90.60;;;;;;5015396;28;19906;-74
2022/05/22 03:15:01;;;;;;;;;;;18.60;90.50;;;;;;4997752;28;19905;-75
2022/05/22 03:17:26;;;;;;;;;;;18.60;90.40;;;;;;5012223;28;19909;-74
2022/05/22 03:19:52;;;;;;;;;;;18.60;90.40;;;;;;4978471;28;20430;-74
2022/05/22 03:22:17;;;;;;;;;;;18.60;90.30;;;;;;4995459;28;20338;-72
2022/05/22 03:24:43;;;;;;;;;;;18.70;90.30;;;;;;4995191;28;19909;-76
2022/05/22 03:27:11;;;;;;;;;;;18.70;90.40;;;;;;4995562;28;19952;-72
2022/05/22 03:29:37;;;;;;;;;;;18.60;90.40;;;;;;4995318;28;19910;-74
2022/05/22 03:32:03;;;;;;;;;;;18.60;90.40;;;;;;4995266;28;19906;-74
2022/05/22 03:34:28;;;;;;;;;;;18.60;90.40;;;;;;4995147;28;19916;-74
2022/05/22 03:36:54;;;;;;;;;;;18.60;90.50;;;;;;4995556;28;19928;-74
2022/05/22 03:39:19;;;;;;;;;;;18.60;90.50;;;;;;5010325;28;19951;-74
2022/05/22 03:41:45;;;;;;;;;;;18.60;90.60;;;;;;4997437;28;19906;-74
2022/05/22 03:44:10;;;;;;;;;;;18.50;90.60;;;;;;4997204;28;20303;-74
2022/05/22 03:46:36;;;;;;;;;;;18.50;90.60;;;;;;4997262;28;20371;-73
2022/05/22 03:49:01;;;;;;;;;;;18.50;90.50;;;;;;5003145;28;19910;-74
2022/05/22 03:51:27;;;;;;;;;;;18.50;90.60;;;;;;4995022;28;19914;-74
2022/05/22 03:53:53;;;;;;;;;;;18.50;90.50;;;;;;4994949;28;19932;-75
2022/05/22 03:56:18;;;;;;;;;;;18.50;90.50;;;;;;4995124;28;20008;-74
2022/05/22 03:58:44;;;;;;;;;;;18.50;90.50;;;;;;4994989;28;19910;-74
2022/05/22 04:01:10;;;;;;;;;;;18.50;90.50;;;;;;4977547;28;20279;-75
2022/05/22 04:03:36;;;;;;;;;;;18.50;90.50;;;;;;4977496;28;19912;-75
2022/05/22 04:06:02;;;;;;;;;;;18.50;90.60;;;;;;4995295;28;19960;-75
2022/05/22 04:08:28;;;;;;;;;;;18.50;90.50;;;;;;4993268;28;19947;-74
2022/05/22 04:10:54;;;;;;;;;;;18.50;90.50;;;;;;4996428;28;19909;-76
2022/05/22 04:13:20;;;;;;;;;;;18.60;90.70;;;;;;4996273;28;19909;-75
2022/05/22 04:15:46;;;;;;;;;;;18.60;90.40;;;;;;5014247;28;19955;-75
2022/05/22 04:18:14;;;;;;;;;;;18.60;90.30;;;;;;5014331;28;19932;-75
2022/05/22 04:20:40;;;;;;;;;;;18.60;90.30;;;;;;4996548;28;19971;-76
2022/05/22 04:25:57;;;;;;;;;;;18.60;90.30;;;;;;4994687;28;19908;-74
2022/05/22 04:28:23;;;;;;;;;;;18.60;90.30;;;;;;4994360;28;20392;-76
2022/05/22 04:30:49;;;;;;;;;;;18.60;90.30;;;;;;4976882;28;19910;-75
2022/05/22 04:33:14;;;;;;;;;;;18.50;90.40;;;;;;4988900;28;20260;-74
2022/05/22 04:35:40;;;;;;;;;;;18.50;90.40;;;;;;5013831;28;20319;-75
2022/05/22 04:38:05;;;;;;;;;;;18.50;90.50;;;;;;4982654;28;19909;-75
2022/05/22 04:40:31;;;;;;;;;;;18.50;90.50;;;;;;4976952;28;20410;-75
2022/05/22 04:42:56;;;;;;;;;;;18.50;90.50;;;;;;4976655;28;19910;-75
2022/05/22 04:45:22;;;;;;;;;;;18.50;90.40;;;;;;4993871;28;19906;-75
2022/05/22 04:47:47;;;;;;;;;;;18.50;90.40;;;;;;5005501;28;20307;-74
2022/05/22 04:50:14;;;;;;;;;;;18.50;90.40;;;;;;5013575;28;20444;-74
2022/05/22 04:52:39;;;;;;;;;;;18.50;90.40;;;;;;4996020;28;19952;-75
2022/05/22 04:55:06;;;;;;;;;;;18.50;90.40;;;;;;4999679;28;19987;-75
2022/05/22 04:57:31;;;;;;;;;;;18.50;90.40;;;;;;4989425;28;19965;-74
2022/05/22 04:59:57;;;;;;;;;;;18.50;90.40;;;;;;4995957;28;19913;-74
2022/05/22 05:02:23;;;;;;;;;;;18.50;90.40;;;;;;4995375;28;19912;-74
2022/05/22 05:04:51;;;;;;;;;;;18.50;90.40;;;;;;5006763;28;20032;-75
2022/05/22 05:07:16;;;;;;;;;;;18.50;90.30;;;;;;5011996;28;19906;-74
2022/05/22 05:09:42;;;;;;;;;;;18.50;90.30;;;;;;4996235;28;20334;-74
2022/05/22 05:12:07;;;;;;;;;;;18.60;90.30;;;;;;4995801;28;19956;-75
2022/05/22 05:14:33;;;;;;;;;;;18.60;90.30;;;;;;5013184;28;19905;-74
2022/05/22 05:16:58;;;;;;;;;;;18.60;90.20;;;;;;5013479;28;19910;-76
2022/05/22 05:19:24;;;;;;;;;;;18.60;90.10;;;;;;5013333;28;19913;-75
2022/05/22 05:21:50;;;;;;;;;;;18.60;90.20;;;;;;5012678;28;19928;-76
2022/05/22 05:24:15;;;;;;;;;;;18.60;90.20;;;;;;5012563;28;19901;-72
2022/05/22 05:26:41;;;;;;;;;;;18.60;90.20;;;;;;5013452;28;20283;-74
2022/05/22 05:29:07;;;;;;;;;;;18.60;90.20;;;;;;4995064;28;20374;-75
2022/05/22 05:31:32;;;;;;;;;;;18.60;90.20;;;;;;5012628;28;19905;-75
2022/05/22 05:33:58;;;;;;;;;;;18.50;90.20;;;;;;4995266;28;19956;-74
2022/05/22 05:36:23;;;;;;;;;;;18.50;90.20;;;;;;5010290;28;19979;-74
2022/05/22 05:38:48;;;;;;;;;;;18.50;90.20;;;;;;4984785;28;19910;-75
2022/05/22 05:41:14;;;;;;;;;;;18.50;90.20;;;;;;4975982;28;19906;-75
2022/05/22 05:43:39;;;;;;;;;;;18.50;90.20;;;;;;4975790;28;19913;-74
2022/05/22 05:46:05;;;;;;;;;;;18.50;90.20;;;;;;4993446;28;19923;-75
2022/05/22 05:48:30;;;;;;;;;;;18.50;90.20;;;;;;4993168;28;19912;-75
2022/05/22 05:50:56;;;;;;;;;;;18.50;90.20;;;;;;4994783;28;19917;-75
2022/05/22 05:53:21;;;;;;;;;;;18.50;90.10;;;;;;4975809;28;20286;-74
2022/05/22 05:55:47;;;;;;;;;;;18.50;90.10;;;;;;4992128;28;20399;-74
2022/05/22 05:58:13;;;;;;;;;;;18.50;90.10;;;;;;4971204;28;19910;-74
2022/05/22 06:00:38;;;;;;;;;;;18.50;90.10;;;;;;4976977;28;19997;-75
2022/05/22 06:03:05;;;;;;;;;;;18.50;90.10;;;;;;4971129;28;20770;-73
2022/05/22 06:05:31;;;;;;;;;;;18.60;90.20;;;;;;5004125;28;19972;-75
2022/05/22 06:07:57;;;;;;;;;;;18.60;90.10;;;;;;4990263;28;19913;-76
2022/05/22 06:10:22;;;;;;;;;;;18.60;90.00;;;;;;4972965;28;19921;-74
2022/05/22 06:12:47;;;;;;;;;;;18.60;90.00;;;;;;4986396;28;20028;-74
2022/05/22 06:15:14;;;;;;;;;;;18.70;89.90;;;;;;5007064;28;20345;-76
2022/05/22 06:17:43;;;;;;;;;;;18.70;89.70;;;;;;4985682;28;20450;-75
2022/05/22 06:20:10;;;;;;;;;;;18.70;89.80;;;;;;5007882;28;19909;-75
2022/05/22 06:22:35;;;;;;;;;;;18.60;89.80;;;;;;5007069;28;19942;-75
2022/05/22 06:25:03;;;;;;;;;;;18.60;89.90;;;;;;4980380;28;20359;-75
2022/05/22 06:27:29;;;;;;;;;;;18.70;89.90;;;;;;5007636;28;19935;-75
2022/05/22 06:29:55;;;;;;;;;;;18.60;89.80;;;;;;4989831;28;20004;-76
2022/05/22 06:32:20;;;;;;;;;;;18.70;89.90;;;;;;4990121;28;20252;-74
2022/05/22 06:34:47;;;;;;;;;;;18.60;89.70;;;;;;5007437;28;20374;-76
2022/05/22 06:37:15;;;;;;;;;;;18.60;89.70;;;;;;4993356;28;20613;-75
2022/05/22 06:39:53;;;;;;;;;;;18.70;89.80;;;;;;5011004;28;20384;-75
2022/05/22 06:42:22;;;;;;;;;;;18.60;89.60;;;;;;4993794;28;20718;-78
2022/05/22 06:44:51;;;;;;;;;;;18.60;89.70;;;;;;5010477;28;19971;-75
2022/05/22 06:47:16;;;;;;;;;;;18.60;89.50;;;;;;4974062;28;19921;-75
2022/05/22 06:49:42;;;;;;;;;;;18.70;89.50;;;;;;4991341;28;19910;-78
2022/05/22 06:52:08;;;;;;;;;;;18.70;89.30;;;;;;4974354;28;19914;-76
2022/05/22 06:54:34;;;;;;;;;;;18.70;89.20;;;;;;4993976;28;19909;-76
2022/05/22 06:57:00;;;;;;;;;;;18.70;89.40;;;;;;4993674;28;19910;-77
2022/05/22 06:59:25;;;;;;;;;;;18.70;89.50;;;;;;4994020;28;19913;-75
2022/05/22 07:01:50;;;;;;;;;;;18.80;89.30;;;;;;4992141;28;19910;-74
2022/05/22 07:04:16;;;;;;;;;;;18.80;89.20;;;;;;4992914;28;19948;-76
2022/05/22 07:06:41;;;;;;;;;;;18.90;89.20;;;;;;5011470;28;20409;-75
2022/05/22 07:09:07;;;;;;;;;;;18.90;88.70;;;;;;4990984;28;19917;-75
2022/05/22 07:11:38;;;;;;;;;;;18.90;88.50;;;;;;4993841;28;19913;-77
2022/05/22 07:14:04;;;;;;;;;;;18.90;88.40;;;;;;5010589;28;19905;-76
2022/05/22 07:16:29;;;;;;;;;;;18.90;88.20;;;;;;5011468;28;19905;-75
2022/05/22 07:18:55;;;;;;;;;;;18.90;88.20;;;;;;4993487;28;19956;-75
2022/05/22 07:21:20;;;;;;;;;;;18.90;88.10;;;;;;5011144;28;19948;-75
2022/05/22 07:23:45;;;;;;;;;;;18.90;88.20;;;;;;5010865;28;19948;-76
2022/05/22 07:26:12;;;;;;;;;;;18.90;88.10;;;;;;4993413;28;20009;-76
2022/05/22 07:28:38;;;;;;;;;;;18.90;88.30;;;;;;4993301;28;20305;-75
2022/05/22 07:31:03;;;;;;;;;;;18.90;88.40;;;;;;4993180;28;20000;-75
2022/05/22 07:33:28;;;;;;;;;;;19.00;88.20;;;;;;4992812;28;20012;-74
2022/05/22 07:35:55;;;;;;;;;;;19.00;88.30;;;;;;4992856;28;19910;-75
2022/05/22 07:38:22;;;;;;;;;;;19.00;88.40;;;;;;4993155;28;19905;-76
2022/05/22 07:40:47;;;;;;;;;;;19.00;88.40;;;;;;5010536;28;20413;-76
2022/05/22 07:43:12;;;;;;;;;;;19.00;88.30;;;;;;4992981;28;19948;-76
2022/05/22 07:45:38;;;;;;;;;;;19.00;88.20;;;;;;4992226;28;19980;-76
2022/05/22 07:48:03;;;;;;;;;;;19.00;88.20;;;;;;4992085;28;19905;-76
2022/05/22 07:50:29;;;;;;;;;;;19.00;88.10;;;;;;4992383;28;20313;-77
2022/05/22 07:52:55;;;;;;;;;;;19.10;88.10;;;;;;5010296;28;20367;-76
2022/05/22 07:55:21;;;;;;;;;;;19.00;88.10;;;;;;4992813;28;20024;-76
2022/05/22 07:57:47;;;;;;;;;;;19.10;87.90;;;;;;4992738;28;19913;-76
2022/05/22 08:00:14;;;;;;;;;;;19.10;87.70;;;;;;5010121;28;20004;-76
2022/05/22 08:02:39;;;;;;;;;;;19.20;87.40;;;;;;5010405;28;19916;-76
2022/05/22 08:05:06;;;;;;;;;;;19.20;87.20;;;;;;4991043;28;19917;-75
2022/05/22 08:07:32;;;;;;;;;;;19.30;87.10;;;;;;4973329;28;19937;-75
2022/05/22 08:09:57;;;;;;;;;;;19.30;86.90;;;;;;4990343;28;19917;-77
2022/05/22 08:12:23;;;;;;;;;;;19.30;86.60;;;;;;4973200;28;20395;-76
2022/05/22 08:14:48;;;;;;;;;;;19.30;86.30;;;;;;4990410;28;19902;-75
2022/05/22 08:17:15;;;;;;;;;;;19.30;86.60;;;;;;4973172;28;20738;-76
2022/05/22 08:19:41;;;;;;;;;;;19.20;87.00;;;;;;4976374;28;20310;-74
2022/05/22 08:22:07;;;;;;;;;;;19.20;86.90;;;;;;4991426;28;19910;-78
2022/05/22 08:24:32;;;;;;;;;;;19.20;86.90;;;;;;4984322;28;19924;-75
2022/05/22 08:26:58;;;;;;;;;;;19.20;86.90;;;;;;4992310;28;19909;-75
2022/05/22 08:29:23;;;;;;;;;;;19.20;87.00;;;;;;5010091;28;19909;-75
2022/05/22 08:31:48;;;;;;;;;;;19.30;87.00;;;;;;5011116;28;19913;-74
2022/05/22 08:34:14;;;;;;;;;;;19.30;87.00;;;;;;4994656;28;19906;-74
2022/05/22 08:36:39;;;;;;;;;;;19.30;87.00;;;;;;4989650;28;19916;-74
2022/05/22 08:39:05;;;;;;;;;;;19.30;86.90;;;;;;4986089;28;20386;-74
2022/05/22 08:41:37;;;;;;;;;;;19.30;86.90;;;;;;5008013;28;19909;-76
2022/05/22 08:44:08;;;;;;;;;;;19.30;86.90;;;;;;5008478;28;19909;-75
2022/05/22 08:46:53;;;;;;;;;;;19.30;86.80;;;;;;5008801;28;19909;-75
2022/05/22 08:49:22;;;;;;;;;;;19.30;86.70;;;;;;4988416;28;19920;-76
2022/05/22 08:51:50;;;;;;;;;;;19.40;86.70;;;;;;4991967;28;19913;-74
2022/05/22 08:54:18;;;;;;;;;;;19.40;86.60;;;;;;5009247;28;19905;-75
2022/05/22 08:59:31;;;;;;;;;;;19.40;86.30;;;;;;5009783;28;19915;-77
2022/05/22 09:02:15;;;;;;;;;;;19.40;86.30;;;;;;5010210;28;19970;-74
2022/05/22 09:04:43;;;;;;;;;;;19.50;85.70;;;;;;4992373;28;19905;-76
2022/05/22 09:07:09;;;;;;;;;;;19.40;85.40;;;;;;4992215;28;19905;-75
2022/05/22 09:09:36;;;;;;;;;;;19.30;82.10;;;;;;4992028;28;20521;-75
2022/05/22 09:12:20;;;;;;;;;;;19.30;82.00;;;;;;4992046;28;20263;-76
2022/05/22 09:14:54;;;;;;;;;;;19.30;82.80;;;;;;5009857;28;19916;-76
2022/05/22 09:17:29;;;;;;;;;;;19.30;83.00;;;;;;5010040;28;19959;-73
2022/05/22 09:20:09;;;;;;;;;;;19.30;83.20;;;;;;5009797;28;20310;-74
2022/05/22 09:22:45;;;;;;;;;;;19.40;83.20;;;;;;4991958;28;20286;-74
2022/05/22 09:25:17;;;;;;;;;;;19.40;83.30;;;;;;5009417;28;19910;-75
2022/05/22 09:27:47;;;;;;;;;;;19.30;83.50;;;;;;4991049;28;19944;-74
2022/05/22 09:30:20;;;;;;;;;;;19.30;83.80;;;;;;4987222;28;19980;-78
2022/05/22 09:32:55;;;;;;;;;;;19.30;84.00;;;;;;5004882;28;19913;-75
2022/05/22 09:35:29;;;;;;;;;;;19.30;84.00;;;;;;4991234;28;20409;-75
2022/05/22 09:37:57;;;;;;;;;;;19.30;84.10;;;;;;4993328;28;19921;-74
2022/05/22 09:40:32;;;;;;;;;;;19.30;84.50;;;;;;4971208;28;19909;-74
2022/05/22 09:43:00;;;;;;;;;;;19.40;84.10;;;;;;4998889;28;19909;-76
2022/05/22 09:45:44;;;;;;;;;;;19.40;84.20;;;;;;5007170;28;19908;-74
2022/05/22 09:48:29;;;;;;;;;;;19.40;84.20;;;;;;4990924;28;19906;-76
2022/05/22 09:51:12;;;;;;;;;;;19.40;84.00;;;;;;5009163;28;19968;-76
2022/05/22 09:53:45;;;;;;;;;;;19.40;83.80;;;;;;5005865;28;19988;-76
2022/05/22 09:56:23;;;;;;;;;;;19.40;83.80;;;;;;4989269;28;19923;-75
2022/05/22 09:58:52;;;;;;;;;;;19.50;83.50;;;;;;5008488;28;19980;-76
2022/05/22 10:01:25;;;;;;;;;;;19.60;83.30;;;;;;4998624;28;19916;-75
2022/05/22 10:03:54;;;;;;;;;;;19.50;83.00;;;;;;5005759;28;20268;-75
2022/05/22 10:06:38;;;;;;;;;;;19.70;82.80;;;;;;4990363;28;19909;-75
2022/05/22 10:09:06;;;;;;;;;;;19.60;82.70;;;;;;4999137;28;19910;-75
2022/05/22 10:11:37;;;;;;;;;;;19.60;82.90;;;;;;5006718;28;19909;-74
2022/05/22 10:14:23;;;;;;;;;;;19.60;83.10;;;;;;4993436;28;19913;-75
2022/05/22 10:17:12;;;;;;;;;;;19.50;83.30;;;;;;4981507;28;19905;-75
2022/05/22 10:19:37;;;;;;;;;;;19.50;83.70;;;;;;4991615;28;19949;-74
2022/05/22 10:22:18;;;;;;;;;;;19.50;83.90;;;;;;4997348;28;19967;-72
2022/05/22 10:24:43;;;;;;;;;;;19.50;84.00;;;;;;4991465;28;20012;-76
2022/05/22 10:27:28;;;;;;;;;;;19.50;84.00;;;;;;5006070;28;20039;-77
2022/05/22 10:30:06;;;;;;;;;;;19.50;84.00;;;;;;4990425;28;20375;-76
2022/05/22 10:32:37;;;;;;;;;;;19.50;84.10;;;;;;4985476;28;19910;-74
2022/05/22 10:35:14;;;;;;;;;;;19.50;84.10;;;;;;5004081;28;19909;-75
2022/05/22 10:37:52;;;;;;;;;;;19.50;84.00;;;;;;4981201;28;20004;-75
2022/05/22 10:40:20;;;;;;;;;;;19.50;83.90;;;;;;5011753;28;19913;-75
2022/05/22 10:42:50;;;;;;;;;;;19.60;83.50;;;;;;5010495;28;19949;-76
2022/05/22 10:45:22;;;;;;;;;;;19.60;83.90;;;;;;4992283;28;19988;-75
2022/05/22 10:47:48;;;;;;;;;;;19.60;84.50;;;;;;5010283;28;19949;-76
2022/05/22 10:50:24;;;;;;;;;;;19.50;83.90;;;;;;4992590;28;19953;-75
2022/05/22 10:52:50;;;;;;;;;;;19.60;83.90;;;;;;4992037;28;20391;-76
2022/05/22 10:55:28;;;;;;;;;;;19.50;83.90;;;;;;4995850;28;19921;-76
2022/05/22 10:57:55;;;;;;;;;;;19.50;83.90;;;;;;5011894;28;19936;-76
2022/05/22 11:00:21;;;;;;;;;;;19.50;83.70;;;;;;5011901;28;19905;-75
2022/05/22 11:02:46;;;;;;;;;;;19.50;83.50;;;;;;5030440;28;20008;-77
2022/05/22 11:05:38;;;;;;;;;;;19.50;83.70;;;;;;5029370;28;20391;-74
2022/05/22 11:08:04;;;;;;;;;;;19.50;84.00;;;;;;5010608;28;19909;-75
2022/05/22 11:10:38;;;;;;;;;;;19.40;84.20;;;;;;5029488;28;20758;-75
2022/05/22 11:13:08;;;;;;;;;;;19.40;84.40;;;;;;5028678;28;19905;-76
2022/05/22 11:15:34;;;;;;;;;;;19.30;84.60;;;;;;5012153;28;20409;-75
2022/05/22 11:18:01;;;;;;;;;;;19.30;84.10;;;;;;5029888;28;19905;-76
2022/05/22 11:20:27;;;;;;;;;;;19.30;84.20;;;;;;4988585;28;19909;-75
2022/05/22 11:23:00;;;;;;;;;;;19.20;83.30;;;;;;4972139;28;20283;-74
2022/05/22 11:25:41;;;;;;;;;;;19.20;83.30;;;;;;4978777;28;20012;-76
2022/05/22 11:28:14;;;;;;;;;;;19.20;83.30;;;;;;5023012;28;19948;-76
2022/05/22 11:31:02;;;;;;;;;;;19.20;83.40;;;;;;5019825;28;19916;-75
2022/05/22 11:33:33;;;;;;;;;;;19.20;83.50;;;;;;5015488;28;19917;-75
2022/05/22 11:36:08;;;;;;;;;;;19.20;83.60;;;;;;5024780;28;19951;-76
2022/05/22 11:38:34;;;;;;;;;;;19.20;83.50;;;;;;5023597;28;19944;-75
2022/05/22 11:41:21;;;;;;;;;;;19.20;83.30;;;;;;4980669;28;19964;-75
2022/05/22 11:43:49;;;;;;;;;;;19.30;83.30;;;;;;4991908;28;19925;-76
2022/05/22 11:46:28;;;;;;;;;;;19.30;83.20;;;;;;5009685;28;19963;-74
2022/05/22 11:49:17;;;;;;;;;;;19.30;83.00;;;;;;5010016;28;19912;-75
2022/05/22 11:52:01;;;;;;;;;;;19.40;82.90;;;;;;4986675;28;19913;-76
2022/05/22 11:54:43;;;;;;;;;;;19.30;82.80;;;;;;4987677;28;19909;-77
2022/05/22 11:57:32;;;;;;;;;;;19.30;82.70;;;;;;5010808;28;20348;-75
2022/05/22 12:00:03;;;;;;;;;;;19.30;82.30;;;;;;4973760;28;19927;-75
2022/05/22 12:02:45;;;;;;;;;;;19.30;82.10;;;;;;4991514;28;19917;-79
2022/05/22 12:05:16;;;;;;;;;;;19.30;81.90;;;;;;4991544;28;19917;-73
2022/05/22 12:08:01;;;;;;;;;;;19.20;81.40;;;;;;4983323;28;19906;-73
2022/05/22 12:10:30;;;;;;;;;;;19.20;82.00;;;;;;5008825;28;20148;-76
2022/05/22 12:12:58;;;;;;;;;;;19.20;81.80;;;;;;5008716;28;20008;-75
2022/05/22 12:15:56;;;;;;;;;;;19.20;82.10;;;;;;4997531;28;20008;-75
2022/05/22 12:18:32;;;;;;;;;;;19.10;82.30;;;;;;4965990;28;19914;-74
2022/05/22 12:21:23;;;;;;;;;;;19.20;82.40;;;;;;4973182;28;19926;-78
2022/05/22 12:24:13;;;;;;;;;;;19.20;82.70;;;;;;5000148;28;19918;-75
2022/05/22 12:26:39;;;;;;;;;;;19.20;82.70;;;;;;4989933;28;20008;-75
2022/05/22 12:29:10;;;;;;;;;;;19.20;82.80;;;;;;4979200;28;20474;-74
2022/05/22 12:31:44;;;;;;;;;;;19.10;82.70;;;;;;4989886;28;19917;-73
2022/05/22 12:34:12;;;;;;;;;;;19.20;82.80;;;;;;4994690;28;19916;-74
2022/05/22 12:36:40;;;;;;;;;;;19.10;82.60;;;;;;4999987;28;20306;-74
2022/05/22 12:39:07;;;;;;;;;;;19.20;82.80;;;;;;5002566;28;19909;-75
2022/05/22 12:42:05;;;;;;;;;;;19.20;82.80;;;;;;4985942;28;19925;-75
2022/05/22 12:44:30;;;;;;;;;;;19.20;82.80;;;;;;4952031;28;20278;-73
2022/05/22 12:46:57;;;;;;;;;;;19.20;82.80;;;;;;4992401;28;19916;-72
2022/05/22 12:49:24;;;;;;;;;;;19.20;82.80;;;;;;5002917;28;20375;-74
2022/05/22 12:51:57;;;;;;;;;;;19.30;82.70;;;;;;4993051;28;20650;-74
2022/05/22 12:54:24;;;;;;;;;;;19.20;82.80;;;;;;5001790;28;20433;-74
2022/05/22 12:56:51;;;;;;;;;;;19.20;82.70;;;;;;4998578;28;19914;-74
2022/05/22 12:59:16;;;;;;;;;;;19.20;82.80;;;;;;5003156;28;20385;-74
2022/05/22 13:01:42;;;;;;;;;;;19.20;83.00;;;;;;5013047;28;19905;-73
2022/05/22 13:04:17;;;;;;;;;;;19.20;83.10;;;;;;5002843;28;19988;-73
2022/05/22 13:06:52;;;;;;;;;;;19.20;83.30;;;;;;5010325;28;19909;-74
2022/05/22 13:09:40;;;;;;;;;;;19.10;83.50;;;;;;4998199;28;20358;-75
2022/05/22 13:12:23;;;;;;;;;;;19.10;83.60;;;;;;5000405;28;20379;-75
2022/05/22 13:14:50;;;;;;;;;;;19.10;83.90;;;;;;5005429;28;19995;-75
2022/05/22 13:17:32;;;;;;;;;;;19.10;84.50;;;;;;5004786;28;19916;-75
2022/05/22 13:20:02;;;;;;;;;;;19.10;84.10;;;;;;5007143;28;19920;-74
2022/05/22 13:22:38;;;;;;;;;;;19.10;84.30;;;;;;5002290;28;19917;-75
2022/05/22 13:25:05;;;;;;;;;;;19.10;84.30;;;;;;5021544;28;19917;-74
2022/05/22 13:27:31;;;;;;;;;;;19.10;84.40;;;;;;5008259;28;19910;-73
2022/05/22 13:29:59;;;;;;;;;;;19.10;84.50;;;;;;5005547;28;19913;-74
2022/05/22 13:32:32;;;;;;;;;;;19.00;84.50;;;;;;4992865;28;19909;-74
2022/05/22 13:34:57;;;;;;;;;;;19.10;84.60;;;;;;4993974;28;19992;-75
2022/05/22 13:37:25;;;;;;;;;;;19.10;84.60;;;;;;4992123;28;19947;-73
2022/05/22 13:40:03;;;;;;;;;;;19.10;84.50;;;;;;4994898;28;19905;-75
2022/05/22 13:42:49;;;;;;;;;;;19.10;84.60;;;;;;4993434;28;20350;-74
2022/05/22 13:45:22;;;;;;;;;;;19.10;84.40;;;;;;5011088;28;19952;-74
2022/05/22 13:48:12;;;;;;;;;;;19.10;84.30;;;;;;4994660;28;20523;-75
2022/05/22 13:53:37;;;;;;;;;;;19.10;84.30;;;;;;5004230;28;19971;-74
2022/05/22 13:56:03;;;;;;;;;;;19.10;84.40;;;;;;4992644;28;19960;-75
2022/05/22 13:58:30;;;;;;;;;;;19.10;84.50;;;;;;4977289;28;19949;-75
2022/05/22 14:00:56;;;;;;;;;;;19.10;84.50;;;;;;5009998;28;20354;-74
2022/05/22 14:03:27;;;;;;;;;;;19.10;85.20;;;;;;4997037;28;19960;-75
2022/05/22 14:05:57;;;;;;;;;;;19.00;84.80;;;;;;5012492;28;19941;-81
2022/05/22 14:08:24;;;;;;;;;;;19.00;84.90;;;;;;5006589;28;19905;-75
2022/05/22 14:10:57;;;;;;;;;;;19.00;85.00;;;;;;4994327;28;19936;-74
2022/05/22 14:13:23;;;;;;;;;;;19.00;85.30;;;;;;5001119;28;20000;-75
2022/05/22 14:15:53;;;;;;;;;;;19.00;85.40;;;;;;4994410;28;19905;-74
2022/05/22 14:18:20;;;;;;;;;;;19.00;85.40;;;;;;5012056;28;19913;-74
2022/05/22 14:20:48;;;;;;;;;;;18.90;85.50;;;;;;4994745;28;20032;-75
2022/05/22 14:23:13;;;;;;;;;;;18.90;85.60;;;;;;4994302;28;19914;-75
2022/05/22 14:25:41;;;;;;;;;;;19.00;85.70;;;;;;4994276;28;19905;-75
2022/05/22 14:28:07;;;;;;;;;;;19.00;85.70;;;;;;5012155;28;19977;-75
2022/05/22 14:30:34;;;;;;;;;;;19.00;85.70;;;;;;5000236;28;20007;-74
2022/05/22 14:33:09;;;;;;;;;;;18.90;85.30;;;;;;4975201;28;19906;-74
2022/05/22 14:35:50;;;;;;;;;;;19.00;85.20;;;;;;4976449;28;19909;-75
2022/05/22 14:38:23;;;;;;;;;;;19.00;85.10;;;;;;4994802;28;19951;-75
2022/05/22 14:40:51;;;;;;;;;;;19.00;84.80;;;;;;4994325;28;19905;-74